Terminal Aerodrome Forecast
Issued by NWS

Home | Current Version | Previous Version | Text Only | Print | Product List | Glossary On
Versions: 1 2 3 4 5 6 7 8 9 10 11 12 13 14
000
FTUS45 KRIW 312300
TAFCPR
TAF
KCPR 312329Z 0100/0124 22010KT P6SM SCT130 BKN200
     FM010900 21014G25KT P6SM BKN150
     FM011800 22020G30KT P6SM SCT080 BKN150
     FM012300 18012G20KT P6SM SCT080 BKN150=

USA.gov is the U.S. government's official web portal to all federal, state and local government web resources and services.